createdAt,value
2023-04-20T00:02:04.137Z,4.46
2023-04-20T00:04:30.856Z,4.33
2023-04-20T00:06:59.076Z,4.34
2023-04-20T00:09:26.793Z,4.32
2023-04-20T00:11:54.294Z,4.43
2023-04-20T00:14:20.879Z,4.34
2023-04-20T00:16:48.453Z,4.33
2023-04-20T00:19:15.024Z,4.33
2023-04-20T00:21:41.648Z,4.30
2023-04-20T00:24:08.368Z,4.34
2023-04-20T00:26:34.965Z,4.34
2023-04-20T00:29:01.733Z,4.30
2023-04-20T00:31:28.292Z,4.31
2023-04-20T00:33:54.712Z,4.31
2023-04-20T00:36:21.925Z,4.33
2023-04-20T00:38:48.435Z,4.36
2023-04-20T00:41:14.981Z,4.42
2023-04-20T00:43:54.292Z,4.32
2023-04-20T00:46:21.487Z,4.31
2023-04-20T00:48:48.252Z,4.31
2023-04-20T00:51:15.045Z,4.32
2023-04-20T00:53:41.761Z,4.22
2023-04-20T00:56:08.996Z,4.29
2023-04-20T00:58:35.504Z,4.30
2023-04-20T01:01:01.932Z,4.26
2023-04-20T01:03:28.525Z,4.20
2023-04-20T01:05:55.762Z,4.18
2023-04-20T01:08:26.407Z,4.20
2023-04-20T01:10:54.333Z,4.32
2023-04-20T01:13:21.103Z,4.22
2023-04-20T01:15:47.936Z,4.30
2023-04-20T01:18:19.431Z,4.11
2023-04-20T01:20:50.490Z,4.23
2023-04-20T01:23:18.648Z,4.18
2023-04-20T01:25:45.267Z,4.09
2023-04-20T01:28:14.378Z,4.07
2023-04-20T01:30:41.316Z,4.14
2023-04-20T01:33:09.025Z,4.13
2023-04-20T01:35:40.963Z,4.03
2023-04-20T01:38:10.411Z,3.91
2023-04-20T01:40:42.658Z,3.77
2023-04-20T01:43:11.054Z,3.66
2023-04-20T01:45:37.990Z,3.51
2023-04-20T01:48:04.981Z,3.39
2023-04-20T01:50:32.127Z,3.31
2023-04-20T01:52:58.687Z,3.21
2023-04-20T01:55:25.155Z,3.13
2023-04-20T01:57:51.754Z,3.05
2023-04-20T02:00:18.594Z,2.97
2023-04-20T02:02:45.568Z,2.95
2023-04-20T02:05:12.132Z,2.96
2023-04-20T02:07:38.884Z,2.87
2023-04-20T02:10:06.433Z,2.86
2023-04-20T02:12:32.917Z,2.80
2023-04-20T02:14:59.531Z,2.73
2023-04-20T02:17:26.360Z,2.67
2023-04-20T02:19:52.855Z,2.63
2023-04-20T02:22:19.554Z,2.60
2023-04-20T02:24:46.224Z,2.55
2023-04-20T02:27:12.684Z,2.50
2023-04-20T02:29:39.207Z,2.43
2023-04-20T02:32:06.613Z,2.36
2023-04-20T02:34:33.435Z,2.35
2023-04-20T02:37:00.192Z,2.30
2023-04-20T02:39:26.914Z,2.26
2023-04-20T02:41:53.562Z,2.25
2023-04-20T02:44:20.012Z,2.15
2023-04-20T02:46:46.638Z,2.12
2023-04-20T02:49:13.299Z,2.09
2023-04-20T02:51:39.872Z,2.05
2023-04-20T02:54:06.427Z,2.00
2023-04-20T02:56:32.919Z,1.96
2023-04-20T02:58:59.370Z,1.92
2023-04-20T03:01:25.993Z,1.91
2023-04-20T03:03:52.752Z,1.88
2023-04-20T03:06:19.425Z,1.80
2023-04-20T03:08:46.128Z,1.73
2023-04-20T03:11:12.540Z,1.67
2023-04-20T03:13:38.908Z,1.60
2023-04-20T03:16:06.220Z,1.56
2023-04-20T03:18:32.760Z,1.46
2023-04-20T03:20:59.145Z,1.53
2023-04-20T03:23:25.820Z,1.49
2023-04-20T03:25:52.487Z,1.46
2023-04-20T03:28:18.907Z,1.60
2023-04-20T03:30:45.495Z,1.56
2023-04-20T03:33:12.018Z,1.61
2023-04-20T03:35:39.492Z,1.77
2023-04-20T03:38:06.552Z,1.93
2023-04-20T03:40:33.007Z,1.91
2023-04-20T03:42:59.578Z,1.91
2023-04-20T03:45:25.973Z,1.87
2023-04-20T03:47:52.464Z,1.88
2023-04-20T03:50:19.239Z,1.97
2023-04-20T03:52:46.280Z,2.03
2023-04-20T03:55:12.675Z,2.00
2023-04-20T03:57:39.126Z,2.07
2023-04-20T04:00:07.303Z,2.11
2023-04-20T04:02:36.795Z,2.06
2023-04-20T04:05:05.291Z,2.12
2023-04-20T04:07:32.125Z,2.00
2023-04-20T04:09:58.558Z,1.95
2023-04-20T04:12:25.082Z,1.91
2023-04-20T04:14:51.570Z,1.79
2023-04-20T04:17:18.147Z,1.86
2023-04-20T04:19:44.630Z,1.74
2023-04-20T04:22:11.128Z,1.72
2023-04-20T04:24:38.980Z,1.79
2023-04-20T04:27:05.595Z,2.00
2023-04-20T04:29:35.794Z,2.11
2023-04-20T04:32:04.068Z,2.01
2023-04-20T04:34:33.727Z,2.19
2023-04-20T04:37:00.565Z,2.15
2023-04-20T04:39:27.867Z,2.19
2023-04-20T04:41:54.301Z,2.22
2023-04-20T04:44:21.258Z,2.24
2023-04-20T04:46:48.368Z,2.26
2023-04-20T04:49:15.209Z,2.20
2023-04-20T04:51:41.832Z,2.11
2023-04-20T04:54:08.438Z,2.05
2023-04-20T04:56:34.894Z,1.92
2023-04-20T04:59:01.759Z,2.11
2023-04-20T05:01:28.378Z,2.15
2023-04-20T05:03:55.114Z,2.00
2023-04-20T05:06:21.656Z,2.03
2023-04-20T05:08:48.344Z,2.12
2023-04-20T05:11:15.001Z,2.32
2023-04-20T05:13:41.610Z,2.16
2023-04-20T05:16:08.682Z,2.21
2023-04-20T05:18:35.313Z,2.31
2023-04-20T05:21:01.872Z,2.30
2023-04-20T05:23:28.421Z,2.14
2023-04-20T05:25:54.901Z,2.40
2023-04-20T05:28:21.344Z,2.41
2023-04-20T05:30:47.780Z,2.45
2023-04-20T05:33:14.170Z,2.64
2023-04-20T05:35:41.170Z,2.50
2023-04-20T05:38:07.652Z,2.65
2023-04-20T05:40:35.407Z,2.63
2023-04-20T05:43:02.264Z,2.65
2023-04-20T05:45:28.813Z,2.49
2023-04-20T05:47:58.461Z,2.38
2023-04-20T05:50:25.952Z,2.41
2023-04-20T05:52:53.264Z,2.26
2023-04-20T05:55:22.222Z,2.32
2023-04-20T05:57:49.381Z,2.37
2023-04-20T06:00:16.918Z,2.48
2023-04-20T06:02:43.993Z,2.35
2023-04-20T06:05:11.282Z,2.55
2023-04-20T06:07:38.304Z,2.79
2023-04-20T06:10:05.747Z,2.96
2023-04-20T06:12:32.240Z,3.24
2023-04-20T06:14:59.519Z,3.45
2023-04-20T06:17:26.834Z,3.07
2023-04-20T06:19:53.372Z,3.52
2023-04-20T06:22:19.951Z,3.38
2023-04-20T06:24:46.728Z,3.15
2023-04-20T06:27:13.390Z,3.40
2023-04-20T06:29:39.821Z,3.07
2023-04-20T06:32:06.375Z,2.97
2023-04-20T06:34:32.968Z,3.30
2023-04-20T06:36:59.362Z,3.29
2023-04-20T06:39:26.210Z,3.41
2023-04-20T06:41:52.892Z,3.55
2023-04-20T06:44:19.287Z,4.03
2023-04-20T06:46:45.750Z,4.06
2023-04-20T06:49:12.182Z,3.95
2023-04-20T06:51:39.155Z,3.77
2023-04-20T06:54:05.722Z,3.55
2023-04-20T06:56:34.313Z,3.60
2023-04-20T06:59:01.949Z,3.82
2023-04-20T07:01:28.422Z,3.65
2023-04-20T07:03:55.231Z,3.88
2023-04-20T07:06:21.818Z,3.93
2023-04-20T07:08:48.277Z,4.17
2023-04-20T07:11:14.655Z,4.01
2023-04-20T07:13:41.225Z,3.80
2023-04-20T07:16:08.129Z,3.55
2023-04-20T07:18:35.361Z,3.81
2023-04-20T07:21:02.384Z,3.93
2023-04-20T07:23:28.898Z,4.00
2023-04-20T07:25:55.697Z,4.32
2023-04-20T07:28:22.149Z,4.41
2023-04-20T07:30:48.584Z,4.64
2023-04-20T07:33:15.142Z,4.51
2023-04-20T07:35:41.655Z,4.63
2023-04-20T07:38:08.097Z,4.70
2023-04-20T07:40:34.613Z,4.96
2023-04-20T07:43:01.130Z,4.80
2023-04-20T07:45:27.622Z,5.03
2023-04-20T07:47:55.275Z,5.13
2023-04-20T07:50:21.998Z,5.09
2023-04-20T07:52:48.530Z,5.32
2023-04-20T07:55:15.837Z,5.33
2023-04-20T07:57:42.547Z,5.59
2023-04-20T08:00:10.128Z,5.47
2023-04-20T08:02:36.935Z,5.54
2023-04-20T08:05:04.034Z,5.76
2023-04-20T08:07:30.874Z,5.93
2023-04-20T08:09:57.253Z,6.11
2023-04-20T08:12:23.768Z,6.24
2023-04-20T08:14:50.309Z,6.04
2023-04-20T08:17:16.690Z,5.46
2023-04-20T08:19:44.956Z,5.69
2023-04-20T08:22:12.714Z,6.19
2023-04-20T08:24:39.182Z,6.40
2023-04-20T08:27:06.647Z,6.91
2023-04-20T08:29:33.036Z,7.11
2023-04-20T08:31:59.646Z,7.43
2023-04-20T08:34:26.188Z,7.52
2023-04-20T08:36:52.750Z,8.00
2023-04-20T08:39:21.795Z,7.95
2023-04-20T08:41:53.572Z,8.23
2023-04-20T08:44:20.550Z,8.40
2023-04-20T08:46:48.389Z,8.45
2023-04-20T08:49:19.185Z,8.52
2023-04-20T08:51:47.361Z,8.41
2023-04-20T08:54:14.769Z,8.40
2023-04-20T08:56:46.159Z,7.64
2023-04-20T08:59:14.415Z,7.58
2023-04-20T09:01:41.993Z,7.20
2023-04-20T09:04:22.974Z,7.17
2023-04-20T09:06:51.672Z,6.69
2023-04-20T09:09:19.727Z,6.48
2023-04-20T09:11:47.647Z,6.67
2023-04-20T09:14:18.890Z,6.98
2023-04-20T09:16:53.494Z,7.26
2023-04-20T09:19:24.677Z,7.08
2023-04-20T09:21:53.166Z,6.80
2023-04-20T09:24:21.573Z,7.14
2023-04-20T09:26:48.184Z,6.73
2023-04-20T09:29:23.378Z,6.90
2023-04-20T09:31:50.762Z,6.75
2023-04-20T09:34:18.281Z,6.60
2023-04-20T09:36:54.721Z,6.66
2023-04-20T09:39:22.983Z,6.70
2023-04-20T09:41:51.027Z,6.83
2023-04-20T09:44:18.898Z,7.00
2023-04-20T09:46:46.682Z,7.07
2023-04-20T09:49:14.677Z,6.93
2023-04-20T09:51:45.186Z,6.78
2023-04-20T09:54:12.651Z,6.83
2023-04-20T09:56:39.988Z,6.48
2023-04-20T09:59:07.890Z,6.69
2023-04-20T10:01:36.466Z,6.82
2023-04-20T10:04:07.727Z,6.68
2023-04-20T10:06:35.843Z,6.56
2023-04-20T10:09:05.176Z,6.64
2023-04-20T10:11:49.047Z,6.56
2023-04-20T10:14:20.887Z,6.62
2023-04-20T10:16:59.508Z,6.51
2023-04-20T10:19:36.722Z,6.63
2023-04-20T10:22:03.201Z,6.55
2023-04-20T10:24:30.456Z,6.55
2023-04-20T10:26:57.116Z,6.59
2023-04-20T10:29:25.425Z,6.57
2023-04-20T10:31:53.359Z,6.86
2023-04-20T10:34:36.120Z,6.61
2023-04-20T10:37:10.184Z,6.85
2023-04-20T10:39:40.152Z,6.80
2023-04-20T10:42:06.599Z,6.70
2023-04-20T10:44:34.526Z,6.43
2023-04-20T10:47:01.088Z,6.51
2023-04-20T10:49:32.249Z,6.75
2023-04-20T10:51:58.850Z,6.55
2023-04-20T10:54:26.105Z,6.79
2023-04-20T10:56:53.304Z,7.19
2023-04-20T10:59:22.044Z,7.37
2023-04-20T11:01:49.824Z,7.50
2023-04-20T11:04:18.936Z,7.16
2023-04-20T11:06:48.241Z,7.28
2023-04-20T11:09:22.921Z,7.42
2023-04-20T11:12:03.857Z,7.57
2023-04-20T11:14:42.903Z,7.06
2023-04-20T11:17:09.467Z,7.17
2023-04-20T11:19:36.962Z,7.06
2023-04-20T11:22:04.547Z,6.95
2023-04-20T11:24:33.695Z,6.99
2023-04-20T11:27:01.958Z,6.82
2023-04-20T11:29:39.127Z,6.95
2023-04-20T11:32:10.681Z,7.24
2023-04-20T11:34:38.499Z,7.24
2023-04-20T11:37:13.755Z,7.23
2023-04-20T11:39:40.236Z,7.63
2023-04-20T11:42:07.185Z,7.52
2023-04-20T11:44:36.426Z,7.88
2023-04-20T11:47:03.787Z,7.88
2023-04-20T11:49:30.891Z,7.84
2023-04-20T11:51:57.576Z,7.75
2023-04-20T11:54:25.148Z,7.66
2023-04-20T11:56:51.633Z,8.21
2023-04-20T11:59:20.097Z,7.86
2023-04-20T12:01:47.803Z,7.98
2023-04-20T12:04:15.354Z,7.97
2023-04-20T12:06:42.429Z,8.29
2023-04-20T12:09:08.905Z,8.49
2023-04-20T12:11:35.314Z,8.46
2023-04-20T12:14:01.752Z,8.54
2023-04-20T12:16:29.302Z,8.63
2023-04-20T12:18:56.454Z,8.93
2023-04-20T12:21:22.897Z,8.97
2023-04-20T12:23:51.127Z,8.71
2023-04-20T12:26:17.886Z,9.43
2023-04-20T12:28:45.417Z,9.62
2023-04-20T12:31:12.182Z,9.84
2023-04-20T12:33:38.893Z,9.89
2023-04-20T12:36:05.625Z,9.98
2023-04-20T12:38:32.007Z,9.77
2023-04-20T12:40:58.536Z,9.88
2023-04-20T12:43:25.027Z,10.09
2023-04-20T12:45:51.503Z,10.05
2023-04-20T12:48:18.054Z,9.90
2023-04-20T12:50:44.613Z,10.27
2023-04-20T12:53:11.063Z,10.10
2023-04-20T12:55:37.515Z,9.60
2023-04-20T12:58:04.088Z,9.41
2023-04-20T13:00:30.725Z,10.01
2023-04-20T13:02:57.371Z,9.40
2023-04-20T13:05:23.875Z,9.75
2023-04-20T13:07:50.693Z,10.15
2023-04-20T13:10:17.249Z,10.40
2023-04-20T13:12:43.765Z,9.75
2023-04-20T13:15:10.837Z,9.46
2023-04-20T13:17:37.329Z,9.42
2023-04-20T13:20:04.919Z,10.16
2023-04-20T13:22:31.840Z,10.59
2023-04-20T13:24:58.390Z,10.92
2023-04-20T13:27:24.814Z,10.36
2023-04-20T13:29:51.293Z,10.85
2023-04-20T13:32:17.756Z,10.83
2023-04-20T13:34:46.074Z,10.28
2023-04-20T13:37:13.136Z,10.09
2023-04-20T13:39:39.548Z,10.05
2023-04-20T13:42:06.065Z,10.32
2023-04-20T13:44:34.441Z,10.66
2023-04-20T13:47:01.041Z,10.54
2023-04-20T13:49:27.476Z,10.37
2023-04-20T13:51:53.962Z,10.63
2023-04-20T13:54:20.917Z,10.86
2023-04-20T13:56:47.433Z,11.03
2023-04-20T13:59:15.525Z,10.99
2023-04-20T14:01:41.967Z,10.81
2023-04-20T14:04:09.885Z,10.61
2023-04-20T14:06:36.512Z,10.80
2023-04-20T14:09:03.004Z,10.85
2023-04-20T14:11:29.493Z,11.07
2023-04-20T14:13:56.037Z,11.33
2023-04-20T14:16:22.816Z,11.61
2023-04-20T14:18:49.438Z,12.18
2023-04-20T14:21:15.982Z,12.28
2023-04-20T14:23:42.477Z,13.04
2023-04-20T14:26:08.915Z,13.47
2023-04-20T14:28:35.394Z,13.57
2023-04-20T14:31:02.559Z,13.25
2023-04-20T14:33:29.082Z,12.86
2023-04-20T14:35:55.488Z,13.20
2023-04-20T14:38:21.869Z,13.68
2023-04-20T14:40:48.788Z,14.23
2023-04-20T14:43:15.427Z,14.39
2023-04-20T14:45:41.943Z,13.97
2023-04-20T14:48:08.538Z,13.64
2023-04-20T14:50:35.116Z,14.29
2023-04-20T14:53:01.918Z,14.55
2023-04-20T14:55:28.778Z,14.64
2023-04-20T14:57:57.188Z,14.37
2023-04-20T15:00:25.212Z,14.63
2023-04-20T15:02:53.553Z,14.61
2023-04-20T15:05:20.597Z,14.27
2023-04-20T15:07:50.598Z,14.36
2023-04-20T15:10:20.469Z,14.32
2023-04-20T15:12:47.861Z,14.56
2023-04-20T15:15:14.964Z,14.64
2023-04-20T15:17:42.059Z,14.82
2023-04-20T15:20:09.300Z,15.05
2023-04-20T15:22:36.889Z,14.99
2023-04-20T15:25:03.936Z,14.79
2023-04-20T15:27:30.532Z,14.74
2023-04-20T15:29:58.405Z,14.42
2023-04-20T15:32:25.767Z,14.61
2023-04-20T15:34:53.829Z,14.68
2023-04-20T15:37:20.498Z,14.55
2023-04-20T15:39:47.149Z,14.68
2023-04-20T15:42:14.193Z,15.06
2023-04-20T15:44:41.456Z,14.63
2023-04-20T15:47:08.032Z,14.37
2023-04-20T15:49:37.325Z,14.55
2023-04-20T15:52:05.112Z,14.59
2023-04-20T15:54:31.547Z,14.55
2023-04-20T15:56:58.056Z,14.38
2023-04-20T15:59:24.665Z,14.42
2023-04-20T16:01:51.253Z,14.53
2023-04-20T16:04:18.086Z,14.65
2023-04-20T16:06:45.171Z,14.55
2023-04-20T16:09:11.549Z,14.24
2023-04-20T16:11:39.622Z,14.05
2023-04-20T16:14:06.456Z,13.98
2023-04-20T16:16:33.334Z,13.85
2023-04-20T16:18:59.780Z,13.92
2023-04-20T16:21:26.393Z,13.85
2023-04-20T16:23:59.844Z,13.76
2023-04-20T16:26:26.290Z,13.68
2023-04-20T16:28:53.692Z,13.61
2023-04-20T16:31:20.297Z,13.57
2023-04-20T16:33:46.913Z,13.55
2023-04-20T16:36:13.639Z,13.49
2023-04-20T16:38:40.081Z,13.48
2023-04-20T16:41:06.633Z,13.43
2023-04-20T16:43:33.107Z,13.33
2023-04-20T16:45:59.641Z,13.32
2023-04-20T16:48:26.231Z,13.32
2023-04-20T16:50:53.199Z,13.36
2023-04-20T16:53:20.040Z,13.34
2023-04-20T16:55:46.534Z,13.37
2023-04-20T16:58:12.952Z,13.30
2023-04-20T17:00:39.463Z,13.21
2023-04-20T17:03:10.856Z,13.18
2023-04-20T17:05:41.104Z,13.16
2023-04-20T17:08:08.667Z,13.09
2023-04-20T17:10:37.251Z,13.12
2023-04-20T17:13:04.227Z,13.10
2023-04-20T17:15:31.262Z,13.06
2023-04-20T17:17:58.189Z,12.92
2023-04-20T17:20:25.022Z,12.93
2023-04-20T17:22:51.653Z,12.92
2023-04-20T17:25:18.374Z,12.92
2023-04-20T17:27:45.004Z,12.98
2023-04-20T17:30:11.890Z,12.87
2023-04-20T17:32:38.512Z,12.74
2023-04-20T17:35:05.535Z,12.82
2023-04-20T17:37:32.061Z,12.77
2023-04-20T17:39:58.672Z,12.61
2023-04-20T17:42:25.303Z,12.55
2023-04-20T17:44:51.716Z,12.43
2023-04-20T17:47:18.208Z,12.44
2023-04-20T17:49:44.745Z,12.33
2023-04-20T17:52:14.913Z,12.38
2023-04-20T17:54:41.535Z,12.21
2023-04-20T17:57:09.012Z,12.06
2023-04-20T17:59:35.883Z,12.14
2023-04-20T18:02:02.912Z,12.12
2023-04-20T18:04:29.730Z,12.12
2023-04-20T18:06:56.562Z,12.18
2023-04-20T18:09:23.002Z,12.18
2023-04-20T18:11:49.392Z,12.17
2023-04-20T18:14:16.113Z,12.14
2023-04-20T18:16:42.659Z,12.08
2023-04-20T18:19:09.226Z,11.94
2023-04-20T18:21:35.723Z,11.96
2023-04-20T18:24:04.192Z,11.84
2023-04-20T18:26:30.675Z,11.76
2023-04-20T18:28:57.115Z,11.63
2023-04-20T18:31:23.669Z,11.60
2023-04-20T18:33:50.286Z,11.62
2023-04-20T18:36:16.886Z,11.54
2023-04-20T18:38:43.683Z,11.48
2023-04-20T18:41:10.881Z,11.45
2023-04-20T18:43:37.734Z,11.43
2023-04-20T18:46:04.639Z,11.39
2023-04-20T18:48:31.323Z,11.49
2023-04-20T18:50:57.748Z,11.45
2023-04-20T18:53:24.203Z,11.47
2023-04-20T18:55:52.867Z,11.47
2023-04-20T18:58:19.329Z,11.43
2023-04-20T19:00:45.881Z,11.42
2023-04-20T19:03:12.588Z,11.35
2023-04-20T19:05:39.213Z,11.36
2023-04-20T19:08:05.707Z,11.39
2023-04-20T19:10:32.191Z,11.22
2023-04-20T19:12:58.648Z,11.23
2023-04-20T19:15:28.032Z,11.38
2023-04-20T19:17:56.058Z,11.27
2023-04-20T19:20:26.176Z,11.19
2023-04-20T19:22:52.872Z,11.16
2023-04-20T19:25:20.367Z,11.31
2023-04-20T19:27:47.214Z,11.17
2023-04-20T19:30:14.045Z,11.09
2023-04-20T19:32:40.632Z,11.16
2023-04-20T19:35:07.529Z,11.09
2023-04-20T19:37:34.154Z,11.02
2023-04-20T19:40:00.770Z,11.18
2023-04-20T19:42:27.357Z,11.18
2023-04-20T19:44:53.919Z,11.21
2023-04-20T19:47:20.801Z,11.09
2023-04-20T19:49:47.401Z,11.19
2023-04-20T19:52:13.891Z,11.11
2023-04-20T19:54:40.394Z,11.03
2023-04-20T19:57:07.070Z,10.90
2023-04-20T19:59:33.780Z,10.87
2023-04-20T20:02:00.298Z,10.81
2023-04-20T20:04:27.123Z,10.78
2023-04-20T20:06:53.956Z,10.71
2023-04-20T20:09:23.737Z,10.60
2023-04-20T20:11:50.763Z,10.67
2023-04-20T20:14:17.564Z,10.46
2023-04-20T20:16:44.215Z,10.48
2023-04-20T20:19:11.071Z,10.22
2023-04-20T20:21:37.796Z,10.21
2023-04-20T20:24:05.089Z,10.30
2023-04-20T20:26:31.612Z,10.09
2023-04-20T20:28:58.065Z,9.91
2023-04-20T20:31:24.690Z,9.83
2023-04-20T20:33:52.073Z,9.68
2023-04-20T20:36:18.942Z,9.47
2023-04-20T20:38:45.473Z,9.37
2023-04-20T20:41:13.855Z,9.21
2023-04-20T20:43:43.170Z,9.22
2023-04-20T20:46:09.829Z,9.18
2023-04-20T20:48:37.189Z,9.10
2023-04-20T20:51:03.733Z,9.00
2023-04-20T20:53:30.182Z,8.93
2023-04-20T20:55:56.649Z,8.69
2023-04-20T20:58:23.110Z,8.58
2023-04-20T21:00:49.746Z,8.52
2023-04-20T21:03:16.426Z,8.45
2023-04-20T21:05:43.062Z,8.27
2023-04-20T21:08:10.069Z,8.22
2023-04-20T21:10:37.094Z,8.13
2023-04-20T21:13:04.203Z,8.11
2023-04-20T21:15:30.678Z,8.06
2023-04-20T21:17:57.310Z,8.00
2023-04-20T21:20:23.746Z,7.95
2023-04-20T21:22:50.230Z,7.89
2023-04-20T21:25:16.991Z,7.89
2023-04-20T21:27:43.629Z,7.91
2023-04-20T21:30:11.095Z,7.85
2023-04-20T21:32:37.647Z,7.80
2023-04-20T21:35:04.478Z,7.78
2023-04-20T21:37:31.141Z,7.70
2023-04-20T21:39:57.651Z,7.71
2023-04-20T21:42:24.124Z,7.69
2023-04-20T21:44:50.724Z,7.75
2023-04-20T21:47:17.267Z,7.86
2023-04-20T21:49:43.863Z,7.94
2023-04-20T21:52:10.524Z,7.88
2023-04-20T21:54:37.646Z,7.98
2023-04-20T21:57:04.121Z,7.93
2023-04-20T21:59:30.558Z,7.81
2023-04-20T22:01:57.334Z,7.73
2023-04-20T22:04:25.891Z,7.85
2023-04-20T22:06:53.525Z,7.88
2023-04-20T22:09:20.144Z,7.86
2023-04-20T22:11:47.781Z,7.82
2023-04-20T22:14:14.306Z,7.80
2023-04-20T22:16:41.110Z,7.78
2023-04-20T22:19:07.696Z,7.70
2023-04-20T22:21:34.398Z,7.85
2023-04-20T22:24:00.937Z,7.78
2023-04-20T22:26:27.588Z,7.84
2023-04-20T22:29:06.414Z,7.99
2023-04-20T22:31:33.076Z,8.12
2023-04-20T22:33:59.621Z,8.08
2023-04-20T22:36:26.615Z,8.01
2023-04-20T22:38:53.595Z,7.89
2023-04-20T22:41:20.307Z,7.98
2023-04-20T22:43:46.721Z,7.98
2023-04-20T22:46:13.297Z,8.08
2023-04-20T22:48:41.513Z,8.11
2023-04-20T22:51:07.945Z,8.15
2023-04-20T22:53:34.553Z,8.29
2023-04-20T22:56:05.850Z,8.29
2023-04-20T22:58:32.503Z,8.29
2023-04-20T23:00:59.371Z,8.14
2023-04-20T23:03:26.522Z,8.12
2023-04-20T23:05:57.502Z,8.38
2023-04-20T23:08:25.571Z,8.35
2023-04-20T23:10:53.785Z,8.32
2023-04-20T23:13:22.014Z,8.22
2023-04-20T23:15:49.701Z,8.17
2023-04-20T23:18:16.562Z,8.14
2023-04-20T23:20:43.290Z,8.31
2023-04-20T23:23:10.953Z,8.34
2023-04-20T23:25:37.813Z,8.17
2023-04-20T23:28:04.986Z,8.06
2023-04-20T23:30:31.736Z,7.80
2023-04-20T23:32:58.362Z,7.67
2023-04-20T23:35:24.970Z,7.66
2023-04-20T23:37:51.589Z,7.58
2023-04-20T23:40:18.158Z,7.55
2023-04-20T23:42:44.647Z,7.48
2023-04-20T23:45:11.899Z,7.38
2023-04-20T23:47:38.653Z,7.26
2023-04-20T23:50:05.801Z,7.21
2023-04-20T23:52:32.550Z,7.11
2023-04-20T23:54:59.134Z,7.04
2023-04-20T23:57:25.604Z,6.95
2023-04-20T23:59:52.071Z,6.87
